createdAt,value
2018-03-16T00:00:51.297Z,126.30
2018-03-16T00:03:18.910Z,132.63
2018-03-16T00:05:46.454Z,135.33
2018-03-16T00:08:14.026Z,127.40
2018-03-16T00:10:41.577Z,126.67
2018-03-16T00:13:09.137Z,129.37
2018-03-16T00:15:36.698Z,142.93
2018-03-16T00:18:04.251Z,116.10
2018-03-16T00:20:31.819Z,127.07
2018-03-16T00:22:59.384Z,112.53
2018-03-16T00:25:26.961Z,126.63
2018-03-16T00:27:54.523Z,120.70
2018-03-16T00:30:22.074Z,132.40
2018-03-16T00:32:49.651Z,121.10
2018-03-16T00:35:17.199Z,135.17
2018-03-16T00:37:44.735Z,134.37
2018-03-16T00:40:12.407Z,114.53
2018-03-16T00:42:39.945Z,106.63
2018-03-16T00:45:08.301Z,117.23
2018-03-16T00:47:35.869Z,115.97
2018-03-16T00:50:04.198Z,125.93
2018-03-16T00:52:31.747Z,113.37
2018-03-16T00:54:59.308Z,112.93
2018-03-16T00:57:26.860Z,115.30
2018-03-16T00:59:54.462Z,111.70
2018-03-16T01:02:22.014Z,107.77
2018-03-16T01:04:50.351Z,114.93
2018-03-16T01:07:17.884Z,107.13
2018-03-16T01:09:45.455Z,115.43
2018-03-16T01:12:13.904Z,111.77
2018-03-16T01:14:41.493Z,116.03
2018-03-16T01:17:09.792Z,101.17
2018-03-16T01:19:37.361Z,121.40
2018-03-16T01:22:04.901Z,107.77
2018-03-16T01:24:32.579Z,110.60
2018-03-16T01:27:00.317Z,125.67
2018-03-16T01:29:27.860Z,116.33
2018-03-16T01:31:55.437Z,119.73
2018-03-16T01:34:22.980Z,114.00
2018-03-16T01:36:51.318Z,108.40
2018-03-16T01:39:18.869Z,118.73
2018-03-16T01:41:46.425Z,99.27
2018-03-16T01:44:13.972Z,117.60
2018-03-16T01:46:41.532Z,114.93
2018-03-16T01:49:09.108Z,127.57
2018-03-16T01:51:36.684Z,105.13
2018-03-16T01:54:04.233Z,124.03
2018-03-16T01:56:31.809Z,114.03
2018-03-16T01:58:59.500Z,122.63
2018-03-16T02:01:27.845Z,104.93
2018-03-16T02:03:55.410Z,118.10
2018-03-16T02:06:23.000Z,117.33
2018-03-16T02:08:50.553Z,101.53
2018-03-16T02:11:18.924Z,89.00
2018-03-16T02:13:46.476Z,113.53
2018-03-16T02:16:14.016Z,125.67
2018-03-16T02:18:41.589Z,109.60
2018-03-16T02:21:09.172Z,112.47
2018-03-16T02:23:37.498Z,126.17
2018-03-16T02:26:05.088Z,72.00
2018-03-16T02:28:32.636Z,119.87
2018-03-16T02:31:00.204Z,115.13
2018-03-16T02:33:27.756Z,122.53
2018-03-16T02:35:55.345Z,127.80
2018-03-16T02:38:22.893Z,109.53
2018-03-16T02:40:50.460Z,109.87
2018-03-16T02:43:18.159Z,124.03
2018-03-16T02:45:45.768Z,119.43
2018-03-16T02:48:13.436Z,112.53
2018-03-16T02:50:41.026Z,124.60
2018-03-16T02:53:08.577Z,115.27
2018-03-16T02:55:36.141Z,138.97
2018-03-16T02:58:03.698Z,119.47
2018-03-16T03:00:32.177Z,133.60
2018-03-16T03:02:59.740Z,130.87
2018-03-16T03:05:27.309Z,127.47
2018-03-16T03:07:54.857Z,125.90
2018-03-16T03:10:22.670Z,120.73
2018-03-16T03:12:50.218Z,125.23
2018-03-16T03:15:17.795Z,119.80
2018-03-16T03:17:45.398Z,126.17
2018-03-16T03:20:12.962Z,118.23
2018-03-16T03:22:40.513Z,125.40
2018-03-16T03:25:08.083Z,131.93
2018-03-16T03:27:36.407Z,117.13
2018-03-16T03:30:03.967Z,130.30
2018-03-16T03:32:31.529Z,126.87
2018-03-16T03:34:59.093Z,135.13
2018-03-16T03:37:26.644Z,126.30
2018-03-16T03:39:54.204Z,120.33
2018-03-16T03:42:21.757Z,112.23
2018-03-16T03:44:49.336Z,114.83
2018-03-16T03:47:16.892Z,118.93
2018-03-16T03:49:45.970Z,124.20
2018-03-16T03:52:13.512Z,119.80
2018-03-16T03:54:41.102Z,125.10
2018-03-16T03:57:08.642Z,123.23
2018-03-16T03:59:36.273Z,129.90
2018-03-16T04:02:03.920Z,118.97
2018-03-16T04:04:32.248Z,126.80
2018-03-16T04:06:59.799Z,100.93
2018-03-16T04:09:27.364Z,108.70
2018-03-16T04:11:54.918Z,115.40
2018-03-16T04:14:22.477Z,118.20
2018-03-16T04:16:50.230Z,133.33
2018-03-16T04:19:17.820Z,115.60
2018-03-16T04:21:45.364Z,132.83
2018-03-16T04:24:12.902Z,118.53
2018-03-16T04:26:40.563Z,127.87
2018-03-16T04:29:08.116Z,115.60
2018-03-16T04:31:35.914Z,109.27
2018-03-16T04:34:03.561Z,109.53
2018-03-16T04:36:31.137Z,108.13
2018-03-16T04:38:58.879Z,94.97
2018-03-16T04:41:26.461Z,120.70
2018-03-16T04:43:54.042Z,120.20
2018-03-16T04:46:21.617Z,120.53
2018-03-16T04:48:49.178Z,107.27
2018-03-16T04:51:17.574Z,116.90
2018-03-16T04:53:45.125Z,120.67
2018-03-16T04:56:13.468Z,119.20
2018-03-16T04:58:41.030Z,129.43
2018-03-16T05:01:08.611Z,128.60
2018-03-16T05:03:36.932Z,129.27
2018-03-16T05:06:04.489Z,124.63
2018-03-16T05:08:32.033Z,129.57
2018-03-16T05:10:59.602Z,126.20
2018-03-16T05:13:27.201Z,113.40
2018-03-16T05:15:57.083Z,112.97
2018-03-16T05:18:24.634Z,126.77
2018-03-16T05:20:52.241Z,113.47
2018-03-16T05:23:19.818Z,129.33
2018-03-16T05:25:47.366Z,128.47
2018-03-16T05:28:14.953Z,107.33
2018-03-16T05:30:43.259Z,142.40
2018-03-16T05:33:10.838Z,117.27
2018-03-16T05:35:38.396Z,135.33
2018-03-16T05:38:05.961Z,126.77
2018-03-16T05:40:33.534Z,109.90
2018-03-16T05:43:01.093Z,121.53
2018-03-16T05:45:29.454Z,120.63
2018-03-16T05:47:57.023Z,119.47
2018-03-16T05:50:24.592Z,109.37
2018-03-16T05:52:52.157Z,105.00
2018-03-16T05:55:19.774Z,110.93
2018-03-16T05:57:47.330Z,103.37
2018-03-16T06:00:14.898Z,120.70
2018-03-16T06:02:42.540Z,96.60
2018-03-16T06:05:10.275Z,100.60
2018-03-16T06:07:38.089Z,104.43
2018-03-16T06:10:05.666Z,102.20
2018-03-16T06:12:33.209Z,97.97
2018-03-16T06:15:00.785Z,101.07
2018-03-16T06:17:28.330Z,64.57
2018-03-16T06:19:55.875Z,97.00
2018-03-16T06:22:23.434Z,106.30
2018-03-16T06:24:51.009Z,83.53
2018-03-16T06:27:18.569Z,103.20
2018-03-16T06:29:46.130Z,109.03
2018-03-16T06:32:13.671Z,107.17
2018-03-16T06:34:41.255Z,105.07
2018-03-16T06:37:08.820Z,103.83
2018-03-16T06:39:36.373Z,83.00
2018-03-16T06:42:03.940Z,109.53
2018-03-16T06:44:31.533Z,96.57
2018-03-16T06:46:59.861Z,104.63
2018-03-16T06:49:27.409Z,92.37
2018-03-16T06:51:54.993Z,107.03
2018-03-16T06:54:22.507Z,98.30
2018-03-16T06:56:50.089Z,74.73
2018-03-16T06:59:17.658Z,89.80
2018-03-16T07:01:45.242Z,107.03
2018-03-16T07:04:15.543Z,97.77
2018-03-16T07:06:43.109Z,92.40
2018-03-16T07:09:10.669Z,57.60
2018-03-16T07:11:38.230Z,92.00
2018-03-16T07:14:05.785Z,102.67
2018-03-16T07:16:33.349Z,96.90
2018-03-16T07:19:00.991Z,97.13
2018-03-16T07:21:28.574Z,86.53
2018-03-16T07:23:56.123Z,91.67
2018-03-16T07:26:23.715Z,98.70
2018-03-16T07:28:52.106Z,104.27
2018-03-16T07:31:22.953Z,89.73
2018-03-16T07:33:50.565Z,82.60
2018-03-16T07:36:18.129Z,96.00
2018-03-16T07:38:45.686Z,89.50
2018-03-16T07:41:13.285Z,81.93
2018-03-16T07:43:40.863Z,93.23
2018-03-16T07:46:16.175Z,92.70
2018-03-16T07:48:44.531Z,85.43
2018-03-16T07:51:12.091Z,82.90
2018-03-16T07:53:39.662Z,59.57
2018-03-16T07:56:07.243Z,84.27
2018-03-16T07:58:35.567Z,73.20
2018-03-16T08:01:03.141Z,82.03
2018-03-16T08:03:30.705Z,73.50
2018-03-16T08:05:58.254Z,73.40
2018-03-16T08:08:25.890Z,79.57
2018-03-16T08:10:53.445Z,74.63
2018-03-16T08:13:21.011Z,70.00
2018-03-16T08:15:48.586Z,72.47
2018-03-16T08:18:16.154Z,60.67
2018-03-16T08:20:43.713Z,74.30
2018-03-16T08:23:11.292Z,65.23
2018-03-16T08:25:38.838Z,75.13
2018-03-16T08:28:06.453Z,66.07
2018-03-16T08:30:33.997Z,65.07
2018-03-16T08:33:01.607Z,75.27
2018-03-16T08:35:29.135Z,66.23
2018-03-16T08:37:57.535Z,82.17
2018-03-16T08:40:25.103Z,82.20
2018-03-16T08:42:52.753Z,62.90
2018-03-16T08:45:20.330Z,72.77
2018-03-16T08:47:47.879Z,64.87
2018-03-16T08:50:15.469Z,73.80
2018-03-16T08:52:43.018Z,78.53
2018-03-16T08:55:10.624Z,51.40
2018-03-16T08:57:38.221Z,76.17
2018-03-16T09:00:05.788Z,45.10
2018-03-16T09:02:33.349Z,68.97
2018-03-16T09:05:00.950Z,57.30
2018-03-16T09:07:29.284Z,46.30
2018-03-16T09:09:56.855Z,76.60
2018-03-16T09:12:24.598Z,52.47
2018-03-16T09:14:52.159Z,30.47
2018-03-16T09:17:19.723Z,87.97
2018-03-16T09:19:47.325Z,75.70
2018-03-16T09:22:14.873Z,92.00
2018-03-16T09:24:42.456Z,93.17
2018-03-16T09:27:10.764Z,79.97
2018-03-16T09:29:38.369Z,102.80
2018-03-16T09:32:05.983Z,84.20
2018-03-16T09:34:33.517Z,92.33
2018-03-16T09:37:01.869Z,109.60
2018-03-16T09:39:29.437Z,64.47
2018-03-16T09:41:56.993Z,75.87
2018-03-16T09:44:24.554Z,101.83
2018-03-16T09:46:52.135Z,104.87
2018-03-16T09:49:20.468Z,98.37
2018-03-16T09:51:48.044Z,69.43
2018-03-16T09:54:15.598Z,91.27
2018-03-16T09:56:43.185Z,79.83
2018-03-16T09:59:10.720Z,72.07
2018-03-16T10:01:38.346Z,59.33
2018-03-16T10:04:06.070Z,87.87
2018-03-16T10:06:34.513Z,70.13
2018-03-16T10:09:02.061Z,68.07
2018-03-16T10:11:29.668Z,38.67
2018-03-16T10:13:57.994Z,61.07
2018-03-16T10:16:25.794Z,70.97
2018-03-16T10:18:53.337Z,49.30
2018-03-16T10:21:20.934Z,70.80
2018-03-16T10:23:49.278Z,66.87
2018-03-16T10:26:16.828Z,76.87
2018-03-16T10:28:44.574Z,70.10
2018-03-16T10:31:12.190Z,66.73
2018-03-16T10:33:40.530Z,66.60
2018-03-16T10:36:08.104Z,59.43
2018-03-16T10:38:35.714Z,73.67
2018-03-16T10:41:03.432Z,55.90
2018-03-16T10:43:31.149Z,55.20
2018-03-16T10:45:58.710Z,68.03
2018-03-16T10:48:26.277Z,71.33
2018-03-16T10:50:53.821Z,67.67
2018-03-16T10:53:21.394Z,70.67
2018-03-16T10:55:48.953Z,58.83
2018-03-16T10:58:16.513Z,70.43
2018-03-16T11:00:49.795Z,67.50
2018-03-16T11:03:17.371Z,70.97
2018-03-16T11:05:50.492Z,68.00
2018-03-16T11:08:23.582Z,47.17
2018-03-16T11:10:51.155Z,50.00
2018-03-16T11:13:19.505Z,58.07
2018-03-16T11:15:47.044Z,51.07
2018-03-16T11:18:14.606Z,53.83
2018-03-16T11:20:42.194Z,47.73
2018-03-16T11:23:09.762Z,47.67
2018-03-16T11:25:37.358Z,79.87
2018-03-16T11:28:04.909Z,66.13
2018-03-16T11:30:32.480Z,56.00
2018-03-16T11:33:00.054Z,68.63
2018-03-16T11:35:27.627Z,64.63
2018-03-16T11:37:55.378Z,64.97
2018-03-16T11:40:22.952Z,61.73
2018-03-16T11:42:50.505Z,68.33
2018-03-16T11:45:18.091Z,34.87
2018-03-16T11:47:45.656Z,60.67
2018-03-16T11:50:14.027Z,44.13
2018-03-16T11:52:41.573Z,70.07
2018-03-16T11:55:09.166Z,64.70
2018-03-16T11:57:36.711Z,59.87
2018-03-16T12:00:04.412Z,63.10
2018-03-16T12:02:31.960Z,57.60
2018-03-16T12:04:59.522Z,55.83
2018-03-16T12:07:27.836Z,48.93
2018-03-16T12:09:55.400Z,62.40
2018-03-16T12:12:22.945Z,47.07
2018-03-16T12:14:50.522Z,44.40
2018-03-16T12:17:18.116Z,35.73
2018-03-16T12:19:45.696Z,60.03
2018-03-16T12:22:14.012Z,51.17
2018-03-16T12:24:41.634Z,76.17
2018-03-16T12:27:10.255Z,56.80
2018-03-16T12:29:37.828Z,62.40
2018-03-16T12:32:05.382Z,39.97
2018-03-16T12:34:32.952Z,44.73
2018-03-16T12:37:00.752Z,52.27
2018-03-16T12:39:29.097Z,48.53
2018-03-16T12:41:56.674Z,47.07
2018-03-16T12:44:24.296Z,56.47
2018-03-16T12:46:51.860Z,41.87
2018-03-16T12:49:19.483Z,37.20
2018-03-16T12:51:47.841Z,40.13
2018-03-16T12:54:16.930Z,41.20
2018-03-16T12:56:46.059Z,38.60
2018-03-16T12:59:13.913Z,43.13
2018-03-16T13:01:41.468Z,40.67
2018-03-16T13:04:09.841Z,22.10
2018-03-16T13:06:38.429Z,25.80
2018-03-16T13:09:06.742Z,44.00
2018-03-16T13:11:35.293Z,28.53
2018-03-16T13:14:02.851Z,45.97
2018-03-16T13:16:31.283Z,39.33
2018-03-16T13:18:58.836Z,51.30
2018-03-16T13:21:26.452Z,55.93
2018-03-16T13:23:54.050Z,46.90
2018-03-16T13:26:21.623Z,47.60
2018-03-16T13:28:49.249Z,44.53
2018-03-16T13:31:16.853Z,34.57
2018-03-16T13:33:44.506Z,37.90
2018-03-16T13:36:12.112Z,42.50
2018-03-16T13:38:39.737Z,46.70
2018-03-16T13:41:07.363Z,38.40
2018-03-16T13:43:34.933Z,40.03
2018-03-16T13:46:02.552Z,44.53
2018-03-16T13:48:30.131Z,43.03
2018-03-16T13:50:58.597Z,43.53
2018-03-16T13:53:26.921Z,47.87
2018-03-16T13:55:55.510Z,52.50
2018-03-16T13:58:23.042Z,54.03
2018-03-16T14:00:50.599Z,46.47
2018-03-16T14:03:18.370Z,43.70
2018-03-16T14:05:46.847Z,40.00
2018-03-16T14:08:14.439Z,47.83
2018-03-16T14:10:41.996Z,47.53
2018-03-16T14:13:09.611Z,32.70
2018-03-16T14:15:37.978Z,38.30
2018-03-16T14:18:05.524Z,46.77
2018-03-16T14:20:33.096Z,34.27
2018-03-16T14:23:00.653Z,46.50
2018-03-16T14:25:28.998Z,37.23
2018-03-16T14:27:56.597Z,34.20
2018-03-16T14:30:24.903Z,50.83
2018-03-16T14:32:52.468Z,50.57
2018-03-16T14:35:20.039Z,51.40
2018-03-16T14:37:47.592Z,41.93
2018-03-16T14:40:15.251Z,58.17
2018-03-16T14:42:42.818Z,42.77
2018-03-16T14:45:10.403Z,39.43
2018-03-16T14:47:37.980Z,57.47
2018-03-16T14:50:05.558Z,36.43
2018-03-16T14:52:33.882Z,40.93
2018-03-16T14:55:01.500Z,44.70
2018-03-16T14:57:29.255Z,49.70
2018-03-16T14:59:56.817Z,57.70
2018-03-16T15:02:25.130Z,48.60
2018-03-16T15:04:52.764Z,52.80
2018-03-16T15:07:20.381Z,45.23
2018-03-16T15:09:48.001Z,45.23
2018-03-16T15:12:15.628Z,42.23
2018-03-16T15:14:44.043Z,39.87
2018-03-16T15:17:11.661Z,39.33
2018-03-16T15:19:39.278Z,37.67
2018-03-16T15:22:06.971Z,41.60
2018-03-16T15:24:34.654Z,21.97
2018-03-16T15:27:02.242Z,20.33
2018-03-16T15:29:29.807Z,18.10
2018-03-16T15:31:57.362Z,38.43
2018-03-16T15:34:24.932Z,28.83
2018-03-16T15:36:52.472Z,29.33
2018-03-16T15:39:20.850Z,37.60
2018-03-16T15:41:48.474Z,30.03
2018-03-16T15:44:16.010Z,37.60
2018-03-16T15:46:43.572Z,41.53
2018-03-16T15:49:11.318Z,29.53
2018-03-16T15:51:38.877Z,28.10
2018-03-16T15:54:07.396Z,23.33
2018-03-16T15:56:35.035Z,35.27
2018-03-16T15:59:04.202Z,35.80
2018-03-16T16:01:31.775Z,33.50
2018-03-16T16:03:59.322Z,35.10
2018-03-16T16:06:27.045Z,14.03
2018-03-16T16:08:54.634Z,23.67
2018-03-16T16:11:22.226Z,22.30
2018-03-16T16:13:49.806Z,28.43
2018-03-16T16:16:18.269Z,26.53
2018-03-16T16:18:45.930Z,29.97
2018-03-16T16:21:13.536Z,42.23
2018-03-16T16:23:41.219Z,34.43
2018-03-16T16:26:09.006Z,28.47
2018-03-16T16:28:36.579Z,25.30
2018-03-16T16:31:04.165Z,39.53
2018-03-16T16:33:33.250Z,19.77
2018-03-16T16:36:00.830Z,32.50
2018-03-16T16:38:28.386Z,29.03
2018-03-16T16:40:57.471Z,35.70
2018-03-16T16:43:25.775Z,35.67
2018-03-16T16:45:53.394Z,15.30
2018-03-16T16:48:20.955Z,31.50
2018-03-16T16:50:48.611Z,36.80
2018-03-16T16:53:16.191Z,31.17
2018-03-16T16:55:43.778Z,36.27
2018-03-16T16:58:12.088Z,26.03
2018-03-16T17:00:39.705Z,30.50
2018-03-16T17:03:07.233Z,24.43
2018-03-16T17:05:34.819Z,35.37
2018-03-16T17:08:02.363Z,15.77
2018-03-16T17:10:29.930Z,12.87
2018-03-16T17:12:57.524Z,15.93
2018-03-16T17:15:25.270Z,36.30
2018-03-16T17:17:52.805Z,33.53
2018-03-16T17:20:20.368Z,23.03
2018-03-16T17:22:47.905Z,20.57
2018-03-16T17:25:15.476Z,29.97
2018-03-16T17:27:43.034Z,34.90
2018-03-16T17:30:10.610Z,28.63
2018-03-16T17:32:38.156Z,27.47
2018-03-16T17:35:05.734Z,24.10
2018-03-16T17:37:33.279Z,32.03
2018-03-16T17:40:00.845Z,32.20
2018-03-16T17:42:28.402Z,19.77
2018-03-16T17:44:55.967Z,34.53
2018-03-16T17:47:24.294Z,36.70
2018-03-16T17:49:51.876Z,28.63
2018-03-16T17:52:19.445Z,31.30
2018-03-16T17:54:47.028Z,56.50
2018-03-16T17:57:14.584Z,31.80
2018-03-16T17:59:42.269Z,24.60
2018-03-16T18:02:09.838Z,38.77
2018-03-16T18:04:38.186Z,31.97
2018-03-16T18:07:05.783Z,39.00
2018-03-16T18:09:33.364Z,40.43
2018-03-16T18:12:00.909Z,31.83
2018-03-16T18:14:28.689Z,42.37
2018-03-16T18:16:56.269Z,21.37
2018-03-16T18:19:23.819Z,30.20
2018-03-16T18:21:52.722Z,36.60
2018-03-16T18:24:20.312Z,26.07
2018-03-16T18:26:48.131Z,24.90
2018-03-16T18:29:15.753Z,31.83
2018-03-16T18:31:44.082Z,31.27
2018-03-16T18:34:11.786Z,36.03
2018-03-16T18:36:39.341Z,37.97
2018-03-16T18:39:07.731Z,24.73
2018-03-16T18:41:35.316Z,26.83
2018-03-16T18:44:02.924Z,37.33
2018-03-16T18:46:30.804Z,26.60
2018-03-16T18:48:59.200Z,35.80
2018-03-16T18:51:26.788Z,33.33
2018-03-16T18:53:54.388Z,38.60
2018-03-16T18:56:22.540Z,31.13
2018-03-16T18:58:50.146Z,25.70
2018-03-16T19:01:18.478Z,48.33
2018-03-16T19:03:46.082Z,39.57
2018-03-16T19:06:14.488Z,39.53
2018-03-16T19:08:42.179Z,34.70
2018-03-16T19:11:11.548Z,32.13
2018-03-16T19:13:40.021Z,33.97
2018-03-16T19:16:08.527Z,23.53
2018-03-16T19:18:36.239Z,19.23
2018-03-16T19:21:04.161Z,19.37
2018-03-16T19:23:31.746Z,37.97
2018-03-16T19:25:59.909Z,15.80
2018-03-16T19:28:27.555Z,29.13
2018-03-16T19:30:55.216Z,40.03
2018-03-16T19:33:22.863Z,15.53
2018-03-16T19:35:51.300Z,21.37
2018-03-16T19:38:18.891Z,20.20
2018-03-16T19:40:47.298Z,15.30
2018-03-16T19:43:14.854Z,23.87
2018-03-16T19:45:42.502Z,13.80
2018-03-16T19:48:10.287Z,18.63
2018-03-16T19:50:37.853Z,26.63
2018-03-16T19:53:05.473Z,28.33
2018-03-16T19:55:34.813Z,15.00
2018-03-16T19:58:02.393Z,16.63
2018-03-16T20:00:30.242Z,18.03
2018-03-16T20:02:57.975Z,25.20
2018-03-16T20:05:25.557Z,22.33
2018-03-16T20:07:53.437Z,28.27
2018-03-16T20:10:21.913Z,15.00
2018-03-16T20:12:49.780Z,19.87
2018-03-16T20:15:17.656Z,22.07
2018-03-16T20:17:45.271Z,28.90
2018-03-16T20:20:12.862Z,21.67
2018-03-16T20:22:40.438Z,9.80
2018-03-16T20:25:08.124Z,25.30
2018-03-16T20:27:35.671Z,22.90
2018-03-16T20:30:04.110Z,20.10
2018-03-16T20:32:31.680Z,18.97
2018-03-16T20:34:59.496Z,25.07
2018-03-16T20:37:28.619Z,22.33
2018-03-16T20:39:56.266Z,16.20
2018-03-16T20:42:24.720Z,16.57
2018-03-16T20:44:52.416Z,27.93
2018-03-16T20:47:19.960Z,13.50
2018-03-16T20:49:47.612Z,15.80
2018-03-16T20:52:15.149Z,18.00
2018-03-16T20:54:42.711Z,25.67
2018-03-16T20:57:10.420Z,24.17
2018-03-16T20:59:38.916Z,23.33
2018-03-16T21:02:06.491Z,20.33
2018-03-16T21:04:34.149Z,16.70
2018-03-16T21:07:01.733Z,9.40
2018-03-16T21:09:29.319Z,32.33
2018-03-16T21:11:56.939Z,21.90
2018-03-16T21:14:24.594Z,22.77
2018-03-16T21:16:52.260Z,29.17
2018-03-16T21:19:20.643Z,20.70
2018-03-16T21:21:48.296Z,20.27
2018-03-16T21:24:15.841Z,23.50
2018-03-16T21:26:44.470Z,20.63
2018-03-16T21:29:12.102Z,21.50
2018-03-16T21:31:39.700Z,30.70
2018-03-16T21:34:08.142Z,15.40
2018-03-16T21:36:35.771Z,25.20
2018-03-16T21:39:03.392Z,18.97
2018-03-16T21:41:31.060Z,30.10
2018-03-16T21:43:58.649Z,22.10
2018-03-16T21:46:27.124Z,22.83
2018-03-16T21:48:55.451Z,22.90
2018-03-16T21:51:23.097Z,29.63
2018-03-16T21:53:51.411Z,17.30
2018-03-16T21:56:19.003Z,26.47
2018-03-16T21:58:47.327Z,25.97
2018-03-16T22:01:14.917Z,26.20
2018-03-16T22:03:42.477Z,26.30
2018-03-16T22:06:11.647Z,20.87
2018-03-16T22:08:39.207Z,33.23
2018-03-16T22:11:06.813Z,27.37
2018-03-16T22:13:35.137Z,11.30
2018-03-16T22:16:02.730Z,29.07
2018-03-16T22:18:31.223Z,17.27
2018-03-16T22:20:59.844Z,19.53
2018-03-16T22:23:27.576Z,20.83
2018-03-16T22:25:55.946Z,16.23
2018-03-16T22:28:23.562Z,15.10
2018-03-16T22:30:51.870Z,18.93
2018-03-16T22:33:19.473Z,8.50
2018-03-16T22:35:47.802Z,17.50
2018-03-16T22:38:15.466Z,18.47
2018-03-16T22:40:43.065Z,20.20
2018-03-16T22:43:11.418Z,17.23
2018-03-16T22:45:39.001Z,22.80
2018-03-16T22:48:07.343Z,24.33
2018-03-16T22:50:34.938Z,16.10
2018-03-16T22:53:03.534Z,21.70
2018-03-16T22:55:31.078Z,20.17
2018-03-16T22:57:59.447Z,14.17
2018-03-16T23:00:28.183Z,9.17
2018-03-16T23:02:55.875Z,12.37
2018-03-16T23:05:23.505Z,22.50
2018-03-16T23:07:51.026Z,17.77
2018-03-16T23:10:19.395Z,17.83
2018-03-16T23:12:46.991Z,17.10
2018-03-16T23:15:14.627Z,10.13
2018-03-16T23:17:42.961Z,14.57
2018-03-16T23:20:10.514Z,76.67
2018-03-16T23:22:38.243Z,12.70
2018-03-16T23:25:06.561Z,12.83
2018-03-16T23:27:34.371Z,14.73
2018-03-16T23:30:02.738Z,14.77
2018-03-16T23:32:30.321Z,14.13
2018-03-16T23:34:58.802Z,11.17
2018-03-16T23:37:27.122Z,13.13
2018-03-16T23:39:54.664Z,4.93
2018-03-16T23:42:22.226Z,19.83
2018-03-16T23:44:49.783Z,19.23
2018-03-16T23:47:17.348Z,10.40
2018-03-16T23:49:45.070Z,14.67
2018-03-16T23:52:12.633Z,16.03
2018-03-16T23:54:40.937Z,17.00
2018-03-16T23:57:08.514Z,15.13
2018-03-16T23:59:36.073Z,19.10
